createdAt,value
2023-05-15T00:00:39.668Z,7.50
2023-05-15T00:03:31.611Z,7.40
2023-05-15T00:06:03.516Z,6.80
2023-05-15T00:08:35.287Z,6.70
2023-05-15T00:11:07.200Z,6.80
2023-05-15T00:13:39.518Z,6.60
2023-05-15T00:16:11.606Z,5.80
2023-05-15T00:18:43.504Z,6.30
2023-05-15T00:21:15.475Z,4.90
2023-05-15T00:23:47.573Z,6.50
2023-05-15T00:26:19.276Z,6.30
2023-05-15T00:28:51.293Z,6.80
2023-05-15T00:31:23.171Z,6.90
2023-05-15T00:33:54.910Z,7.10
2023-05-15T00:36:26.664Z,6.30
2023-05-15T00:38:58.434Z,7.50
2023-05-15T00:41:32.491Z,7.10
2023-05-15T00:44:06.184Z,6.80
2023-05-15T00:46:39.333Z,6.80
2023-05-15T00:49:13.729Z,6.90
2023-05-15T00:51:45.796Z,7.00
2023-05-15T00:54:17.558Z,7.10
2023-05-15T00:56:50.821Z,7.00
2023-05-15T00:59:23.854Z,7.40
2023-05-15T01:01:55.693Z,7.20
2023-05-15T01:04:27.702Z,7.30
2023-05-15T01:06:59.414Z,7.70
2023-05-15T01:09:34.192Z,7.80
2023-05-15T01:12:08.689Z,7.40
2023-05-15T01:14:40.481Z,7.30
2023-05-15T01:17:12.380Z,5.30
2023-05-15T01:19:46.564Z,7.60
2023-05-15T01:22:42.510Z,8.50
2023-05-15T01:25:46.123Z,8.40
2023-05-15T01:28:23.351Z,8.60
2023-05-15T01:30:58.975Z,8.40
2023-05-15T01:33:35.606Z,9.00
2023-05-15T01:36:14.591Z,8.80
2023-05-15T01:38:51.488Z,8.70
2023-05-15T01:41:28.412Z,8.70
2023-05-15T01:44:05.935Z,9.80
2023-05-15T01:46:43.968Z,9.70
2023-05-15T01:49:20.052Z,9.90
2023-05-15T01:51:56.106Z,9.50
2023-05-15T01:54:29.615Z,9.20
2023-05-15T01:57:02.839Z,9.50
2023-05-15T01:59:36.218Z,9.40
2023-05-15T02:02:10.701Z,9.90
2023-05-15T02:04:44.709Z,9.40
2023-05-15T02:07:18.878Z,9.00
2023-05-15T02:09:52.050Z,9.70
2023-05-15T02:12:25.113Z,9.40
2023-05-15T02:14:58.845Z,9.80
2023-05-15T02:17:31.378Z,9.80
2023-05-15T02:20:05.048Z,10.00
2023-05-15T02:22:37.021Z,10.00
2023-05-15T02:25:09.726Z,9.90
2023-05-15T02:27:49.517Z,9.60
2023-05-15T02:30:35.355Z,9.20
2023-05-15T02:33:19.575Z,9.70
2023-05-15T02:35:58.084Z,9.30
2023-05-15T02:38:34.688Z,8.40
2023-05-15T02:41:08.789Z,8.60
2023-05-15T02:43:42.923Z,8.80
2023-05-15T02:46:16.419Z,8.60
2023-05-15T02:48:49.289Z,8.60
2023-05-15T02:53:51.716Z,9.60
2023-05-15T02:56:23.472Z,8.60
2023-05-15T02:58:55.453Z,8.80
2023-05-15T03:01:27.313Z,8.70
2023-05-15T03:03:59.111Z,7.80
2023-05-15T03:06:31.569Z,8.50
2023-05-15T03:09:03.472Z,8.30
2023-05-15T03:11:35.708Z,9.70
2023-05-15T03:14:07.466Z,8.70
2023-05-15T03:16:39.530Z,9.10
2023-05-15T03:19:11.528Z,9.70
2023-05-15T03:21:43.337Z,8.40
2023-05-15T03:24:15.183Z,9.50
2023-05-15T03:26:46.891Z,9.00
2023-05-15T03:29:18.593Z,9.40
2023-05-15T03:31:50.647Z,9.50
2023-05-15T03:34:22.486Z,10.50
2023-05-15T03:36:54.231Z,9.50
2023-05-15T03:39:25.989Z,9.30
2023-05-15T03:41:57.728Z,9.80
2023-05-15T03:44:29.773Z,12.30
2023-05-15T03:47:02.636Z,9.80
2023-05-15T03:49:35.047Z,10.10
2023-05-15T03:52:09.972Z,10.00
2023-05-15T03:57:13.245Z,10.00
2023-05-15T03:59:44.951Z,11.00
2023-05-15T04:02:16.661Z,12.40
2023-05-15T04:04:48.846Z,11.60
2023-05-15T04:07:20.836Z,10.30
2023-05-15T04:09:52.538Z,11.90
2023-05-15T04:12:27.148Z,10.90
2023-05-15T04:15:00.218Z,12.50
2023-05-15T04:17:31.966Z,12.00
2023-05-15T04:20:04.137Z,13.20
2023-05-15T04:22:36.004Z,13.00
2023-05-15T04:25:09.131Z,13.40
2023-05-15T04:27:41.346Z,14.50
2023-05-15T04:30:14.436Z,14.10
2023-05-15T04:32:46.375Z,13.80
2023-05-15T04:35:18.167Z,14.90
2023-05-15T04:37:50.016Z,14.20
2023-05-15T04:40:21.749Z,13.30
2023-05-15T04:42:53.857Z,15.10
2023-05-15T04:45:25.700Z,14.30
2023-05-15T04:47:57.763Z,15.90
2023-05-15T04:50:29.628Z,14.50
2023-05-15T04:53:01.377Z,10.20
2023-05-15T04:55:33.769Z,14.50
2023-05-15T04:58:05.672Z,15.20
2023-05-15T05:00:37.446Z,15.60
2023-05-15T05:03:09.206Z,15.40
2023-05-15T05:05:41.457Z,11.10
2023-05-15T05:08:13.252Z,15.50
2023-05-15T05:10:45.095Z,17.10
2023-05-15T05:13:16.835Z,16.70
2023-05-15T05:15:48.576Z,17.40
2023-05-15T05:18:20.420Z,12.60
2023-05-15T05:20:59.548Z,18.80
2023-05-15T05:23:32.135Z,18.20
2023-05-15T05:26:05.401Z,17.60
2023-05-15T05:28:38.010Z,16.20
2023-05-15T05:31:09.889Z,16.20
2023-05-15T05:33:42.286Z,17.00
2023-05-15T05:36:13.989Z,16.60
2023-05-15T05:38:46.040Z,15.90
2023-05-15T05:41:19.284Z,16.40
2023-05-15T05:43:50.956Z,15.80
2023-05-15T05:46:22.839Z,16.80
2023-05-15T05:48:54.826Z,16.30
2023-05-15T05:51:26.529Z,16.20
2023-05-15T05:53:58.400Z,15.10
2023-05-15T05:56:30.654Z,16.40
2023-05-15T05:59:02.785Z,15.30
2023-05-15T06:01:34.494Z,11.00
2023-05-15T06:04:06.632Z,16.00
2023-05-15T06:06:38.530Z,14.90
2023-05-15T06:09:10.328Z,12.30
2023-05-15T06:11:42.760Z,15.00
2023-05-15T06:14:14.547Z,17.20
2023-05-15T06:16:46.395Z,16.40
2023-05-15T06:19:18.336Z,17.00
2023-05-15T06:21:50.295Z,16.80
2023-05-15T06:24:21.987Z,16.80
2023-05-15T06:26:54.115Z,16.70
2023-05-15T06:29:25.927Z,16.10
2023-05-15T06:31:57.701Z,15.90
2023-05-15T06:34:30.215Z,15.80
2023-05-15T06:37:02.792Z,16.10
2023-05-15T06:39:34.526Z,15.80
2023-05-15T06:42:06.941Z,16.70
2023-05-15T06:44:39.850Z,16.50
2023-05-15T06:47:11.730Z,16.10
2023-05-15T06:49:43.627Z,16.70
2023-05-15T06:52:15.739Z,16.50
2023-05-15T06:54:48.428Z,18.40
2023-05-15T06:57:20.296Z,16.90
2023-05-15T06:59:52.046Z,16.40
2023-05-15T07:02:23.923Z,16.20
2023-05-15T07:04:56.234Z,12.10
2023-05-15T07:07:28.122Z,17.50
2023-05-15T07:09:59.966Z,16.90
2023-05-15T07:12:32.812Z,15.50
2023-05-15T07:15:04.762Z,14.90
2023-05-15T07:17:36.709Z,9.90
2023-05-15T07:20:10.463Z,11.50
2023-05-15T07:22:55.012Z,12.60
2023-05-15T07:25:28.022Z,11.00
2023-05-15T07:28:00.195Z,11.10
2023-05-15T07:30:32.074Z,12.80
2023-05-15T07:33:03.941Z,17.50
2023-05-15T07:35:35.796Z,10.90
2023-05-15T07:38:07.525Z,20.30
2023-05-15T07:40:39.616Z,17.90
2023-05-15T07:43:11.417Z,17.40
2023-05-15T07:45:43.484Z,22.50
2023-05-15T07:48:20.035Z,17.40
2023-05-15T07:50:52.333Z,14.50
2023-05-15T07:53:24.210Z,15.20
2023-05-15T07:55:56.418Z,18.00
2023-05-15T07:58:28.904Z,18.10
2023-05-15T08:01:00.711Z,15.60
2023-05-15T08:03:33.896Z,19.80
2023-05-15T08:06:08.075Z,20.60
2023-05-15T08:08:39.840Z,20.20
2023-05-15T08:11:11.461Z,19.40
2023-05-15T08:13:43.244Z,21.20
2023-05-15T08:16:14.998Z,39.70
2023-05-15T08:18:46.859Z,34.20
2023-05-15T08:21:18.712Z,25.40
2023-05-15T08:23:50.704Z,19.40
2023-05-15T08:26:22.509Z,20.30
2023-05-15T08:28:54.286Z,20.10
2023-05-15T08:31:26.032Z,20.00
2023-05-15T08:33:57.979Z,22.40
2023-05-15T08:36:29.859Z,13.70
2023-05-15T08:39:01.739Z,15.10
2023-05-15T08:41:40.901Z,17.00
2023-05-15T08:44:13.977Z,20.40
2023-05-15T08:49:23.366Z,19.50
2023-05-15T08:51:56.481Z,16.60
2023-05-15T08:54:28.889Z,18.80
2023-05-15T08:57:01.163Z,19.00
2023-05-15T08:59:33.262Z,18.50
2023-05-15T09:02:05.312Z,20.60
2023-05-15T09:04:37.501Z,17.30
2023-05-15T09:07:11.391Z,15.70
2023-05-15T09:09:44.175Z,19.50
2023-05-15T09:14:48.128Z,26.40
2023-05-15T09:17:19.916Z,27.80
2023-05-15T09:19:51.583Z,20.60
2023-05-15T09:22:25.824Z,20.90
2023-05-15T09:24:58.160Z,27.60
2023-05-15T09:27:29.991Z,31.70
2023-05-15T09:30:12.440Z,27.40
2023-05-15T09:32:44.775Z,22.60
2023-05-15T09:35:32.197Z,28.20
2023-05-15T09:38:05.756Z,29.00
2023-05-15T09:40:37.478Z,23.80
2023-05-15T09:43:10.808Z,27.00
2023-05-15T09:45:43.159Z,35.80
2023-05-15T09:48:15.698Z,21.00
2023-05-15T09:50:47.858Z,20.60
2023-05-15T09:53:21.381Z,20.50
2023-05-15T09:55:55.120Z,20.20
2023-05-15T09:58:26.836Z,18.90
2023-05-15T10:01:02.734Z,19.90
2023-05-15T10:03:34.620Z,19.50
2023-05-15T10:06:07.027Z,19.40
2023-05-15T10:08:41.625Z,18.40
2023-05-15T10:11:14.041Z,18.60
2023-05-15T10:13:46.283Z,19.20
2023-05-15T10:16:20.940Z,18.60
2023-05-15T10:18:53.916Z,18.70
2023-05-15T10:21:26.856Z,18.30
2023-05-15T10:24:01.021Z,19.00
2023-05-15T10:26:39.193Z,18.10
2023-05-15T10:29:12.932Z,18.60
2023-05-15T10:31:46.399Z,17.60
2023-05-15T10:34:19.475Z,17.10
2023-05-15T10:36:52.711Z,18.30
2023-05-15T10:39:25.291Z,18.20
2023-05-15T10:41:59.425Z,17.80
2023-05-15T10:44:31.244Z,16.70
2023-05-15T10:47:04.650Z,15.40
2023-05-15T10:49:36.854Z,16.40
2023-05-15T10:52:10.061Z,16.80
2023-05-15T10:54:42.165Z,17.60
2023-05-15T10:57:15.165Z,16.50
2023-05-15T10:59:46.918Z,17.20
2023-05-15T11:02:26.364Z,18.10
2023-05-15T11:04:59.337Z,17.10
2023-05-15T11:07:31.131Z,17.90
2023-05-15T11:10:23.004Z,17.30
2023-05-15T11:13:02.665Z,17.50
2023-05-15T11:15:44.475Z,17.30
2023-05-15T11:18:16.979Z,17.70
2023-05-15T11:21:11.172Z,16.60
2023-05-15T11:23:43.927Z,16.20
2023-05-15T11:28:47.884Z,18.50
2023-05-15T11:31:30.524Z,17.90
2023-05-15T11:34:07.588Z,16.40
2023-05-15T11:36:41.279Z,17.50
2023-05-15T11:39:14.223Z,18.40
2023-05-15T11:41:46.073Z,17.70
2023-05-15T11:44:22.778Z,17.70
2023-05-15T11:46:56.120Z,19.10
2023-05-15T11:49:29.285Z,17.80
2023-05-15T11:52:02.102Z,18.70
2023-05-15T11:57:05.076Z,17.90
2023-05-15T11:59:37.879Z,19.00
2023-05-15T12:02:09.785Z,18.30
2023-05-15T12:04:41.794Z,16.60
2023-05-15T12:07:13.968Z,19.60
2023-05-15T12:09:50.917Z,19.00
2023-05-15T12:12:26.779Z,19.70
2023-05-15T12:15:01.610Z,18.50
2023-05-15T12:17:34.047Z,18.90
2023-05-15T12:20:10.541Z,18.80
2023-05-15T12:22:42.976Z,19.20
2023-05-15T12:25:16.357Z,18.20
2023-05-15T12:27:48.366Z,19.40
2023-05-15T12:30:21.170Z,19.00
2023-05-15T12:35:23.771Z,18.20
2023-05-15T12:37:55.607Z,17.80
2023-05-15T12:40:28.110Z,17.20
2023-05-15T12:43:00.076Z,19.20
2023-05-15T12:45:35.270Z,13.80
2023-05-15T12:48:08.093Z,20.70
2023-05-15T12:50:40.382Z,19.50
2023-05-15T12:53:15.843Z,20.10
2023-05-15T12:55:48.833Z,19.90
2023-05-15T12:58:21.317Z,19.60
2023-05-15T13:00:54.899Z,18.60
2023-05-15T13:03:27.991Z,19.50
2023-05-15T13:06:00.373Z,20.10
2023-05-15T13:08:32.484Z,22.00
2023-05-15T13:11:04.338Z,21.80
2023-05-15T13:13:47.200Z,24.20
2023-05-15T13:16:29.462Z,20.20
2023-05-15T13:19:01.626Z,21.00
2023-05-15T13:21:33.862Z,27.30
2023-05-15T13:24:06.280Z,21.90
2023-05-15T13:26:38.043Z,23.00
2023-05-15T13:29:10.249Z,21.50
2023-05-15T13:31:42.287Z,23.80
2023-05-15T13:34:13.985Z,23.10
2023-05-15T13:36:45.683Z,23.20
2023-05-15T13:39:17.562Z,23.60
2023-05-15T13:41:49.262Z,24.90
2023-05-15T13:44:21.068Z,24.70
2023-05-15T13:46:52.863Z,23.90
2023-05-15T13:49:25.623Z,25.00
2023-05-15T13:54:27.551Z,23.90
2023-05-15T13:56:59.226Z,27.80
2023-05-15T13:59:31.357Z,30.00
2023-05-15T14:02:03.002Z,28.60
2023-05-15T14:04:35.154Z,23.80
2023-05-15T14:07:07.485Z,22.80
2023-05-15T14:09:39.956Z,22.60
2023-05-15T14:12:12.284Z,26.60
2023-05-15T14:14:46.075Z,25.60
2023-05-15T14:17:18.268Z,21.40
2023-05-15T14:19:50.248Z,22.20
2023-05-15T14:22:24.781Z,23.50
2023-05-15T14:24:56.863Z,21.00
2023-05-15T14:27:28.775Z,21.50
2023-05-15T14:30:01.325Z,20.90
2023-05-15T14:32:33.421Z,19.20
2023-05-15T14:35:05.824Z,21.40
2023-05-15T14:37:39.244Z,19.40
2023-05-15T14:40:14.041Z,18.20
2023-05-15T14:42:45.869Z,17.90
2023-05-15T14:45:17.525Z,19.20
2023-05-15T14:47:49.592Z,18.70
2023-05-15T14:50:22.495Z,18.90
2023-05-15T14:52:54.681Z,18.80
2023-05-15T14:55:26.568Z,19.00
2023-05-15T14:58:00.454Z,19.70
2023-05-15T15:00:32.221Z,19.70
2023-05-15T15:03:03.994Z,19.80
2023-05-15T15:05:35.898Z,17.70
2023-05-15T15:08:09.625Z,16.60
2023-05-15T15:10:43.429Z,17.80
2023-05-15T15:13:16.488Z,18.00
2023-05-15T15:15:48.906Z,16.80
2023-05-15T15:18:21.213Z,15.00
2023-05-15T15:20:52.997Z,16.40
2023-05-15T15:23:25.026Z,16.50
2023-05-15T15:25:56.860Z,16.40
2023-05-15T15:28:33.537Z,17.00
2023-05-15T15:31:06.024Z,17.90
2023-05-15T15:33:38.116Z,17.20
2023-05-15T15:36:10.398Z,16.80
2023-05-15T15:38:43.801Z,21.40
2023-05-15T15:41:15.700Z,18.40
2023-05-15T15:43:47.429Z,18.70
2023-05-15T15:46:19.361Z,19.50
2023-05-15T15:48:51.319Z,13.90
2023-05-15T15:51:23.126Z,20.50
2023-05-15T15:53:55.221Z,21.20
2023-05-15T15:56:27.054Z,20.40
2023-05-15T15:58:58.978Z,20.40
2023-05-15T16:01:31.270Z,21.10
2023-05-15T16:04:03.758Z,21.40
2023-05-15T16:06:35.941Z,21.70
2023-05-15T16:09:07.937Z,23.40
2023-05-15T16:11:39.627Z,22.00
2023-05-15T16:14:11.913Z,21.60
2023-05-15T16:16:43.773Z,23.70
2023-05-15T16:19:16.495Z,21.00
2023-05-15T16:24:19.793Z,21.80
2023-05-15T16:26:52.210Z,22.40
2023-05-15T16:29:24.041Z,21.70
2023-05-15T16:31:57.230Z,23.00
2023-05-15T16:34:29.332Z,24.50
2023-05-15T16:37:01.226Z,24.30
2023-05-15T16:39:38.270Z,24.40
2023-05-15T16:42:10.088Z,23.30
2023-05-15T16:44:42.312Z,23.90
2023-05-15T16:47:14.210Z,21.30
2023-05-15T16:49:48.271Z,22.90
2023-05-15T16:52:22.231Z,23.90
2023-05-15T16:54:56.375Z,21.60
2023-05-15T16:57:28.163Z,26.50
2023-05-15T16:59:59.994Z,18.20
2023-05-15T17:05:03.635Z,21.10
2023-05-15T17:07:35.430Z,20.80
2023-05-15T17:10:08.497Z,18.60
2023-05-15T17:12:40.727Z,19.40
2023-05-15T17:15:13.998Z,19.10
2023-05-15T17:17:45.784Z,20.30
2023-05-15T17:20:17.739Z,26.00
2023-05-15T17:22:50.812Z,24.50
2023-05-15T17:25:22.614Z,28.90
2023-05-15T17:27:54.454Z,26.10
2023-05-15T17:30:26.907Z,26.70
2023-05-15T17:32:59.592Z,23.10
2023-05-15T17:35:33.189Z,18.80
2023-05-15T17:38:05.919Z,20.40
2023-05-15T17:40:39.082Z,16.90
2023-05-15T17:43:10.902Z,17.20
2023-05-15T17:45:43.291Z,18.30
2023-05-15T17:48:15.107Z,17.10
2023-05-15T17:50:47.037Z,15.00
2023-05-15T17:53:18.882Z,14.30
2023-05-15T17:55:51.051Z,11.00
2023-05-15T17:58:23.221Z,13.30
2023-05-15T18:00:55.124Z,8.90
2023-05-15T18:03:27.230Z,12.60
2023-05-15T18:05:59.558Z,12.80
2023-05-15T18:08:31.348Z,13.30
2023-05-15T18:11:11.062Z,12.60
2023-05-15T18:13:50.049Z,11.40
2023-05-15T18:16:22.159Z,12.30
2023-05-15T18:18:54.279Z,12.20
2023-05-15T18:21:26.087Z,11.80
2023-05-15T18:23:57.849Z,12.10
2023-05-15T18:26:31.241Z,12.10
2023-05-15T18:29:03.322Z,13.20
2023-05-15T18:31:35.370Z,12.10
2023-05-15T18:34:07.447Z,12.10
2023-05-15T18:36:39.413Z,8.40
2023-05-15T18:39:11.225Z,11.70
2023-05-15T18:41:43.750Z,13.20
2023-05-15T18:44:15.607Z,13.50
2023-05-15T18:46:47.502Z,14.10
2023-05-15T18:49:19.222Z,13.70
2023-05-15T18:51:50.898Z,14.80
2023-05-15T18:54:22.718Z,13.40
2023-05-15T18:56:54.522Z,13.80
2023-05-15T18:59:27.020Z,13.50
2023-05-15T19:01:58.803Z,14.10
2023-05-15T19:04:30.628Z,13.30
2023-05-15T19:07:02.413Z,13.70
2023-05-15T19:09:34.288Z,14.30
2023-05-15T19:12:06.580Z,13.80
2023-05-15T19:14:38.399Z,14.30
2023-05-15T19:17:10.102Z,14.20
2023-05-15T19:19:42.026Z,14.10
2023-05-15T19:22:14.084Z,15.00
2023-05-15T19:24:45.964Z,14.40
2023-05-15T19:27:17.719Z,13.80
2023-05-15T19:29:49.821Z,13.20
2023-05-15T19:32:21.871Z,14.20
2023-05-15T19:34:53.795Z,12.80
2023-05-15T19:37:25.678Z,14.40
2023-05-15T19:39:57.872Z,14.40
2023-05-15T19:42:29.761Z,13.50
2023-05-15T19:45:01.558Z,13.90
2023-05-15T19:47:33.497Z,14.00
2023-05-15T19:50:06.315Z,13.70
2023-05-15T19:52:38.519Z,14.80
2023-05-15T19:55:11.797Z,13.10
2023-05-15T19:57:44.936Z,13.60
2023-05-15T20:00:21.119Z,14.00
2023-05-15T20:02:56.436Z,13.50
2023-05-15T20:05:30.652Z,13.40
2023-05-15T20:08:03.379Z,14.40
2023-05-15T20:10:37.653Z,13.60
2023-05-15T20:13:11.307Z,12.90
2023-05-15T20:15:43.516Z,12.60
2023-05-15T20:18:16.097Z,13.20
2023-05-15T20:20:47.846Z,13.80
2023-05-15T20:23:20.206Z,12.10
2023-05-15T20:25:52.900Z,12.70
2023-05-15T20:28:25.973Z,13.30
2023-05-15T20:31:01.781Z,12.40
2023-05-15T20:33:34.211Z,12.90
2023-05-15T20:36:06.275Z,12.30
2023-05-15T20:38:40.487Z,12.30
2023-05-15T20:41:12.319Z,13.10
2023-05-15T20:43:44.615Z,12.40
2023-05-15T20:46:16.967Z,12.70
2023-05-15T20:48:48.986Z,11.20
2023-05-15T20:51:21.726Z,12.00
2023-05-15T20:56:23.846Z,12.50
2023-05-15T20:58:56.850Z,12.40
2023-05-15T21:01:30.877Z,12.50
2023-05-15T21:04:02.939Z,11.80
2023-05-15T21:06:34.779Z,10.60
2023-05-15T21:09:07.579Z,11.70
2023-05-15T21:11:39.866Z,11.80
2023-05-15T21:14:11.757Z,8.30
2023-05-15T21:16:44.170Z,11.70
2023-05-15T21:19:16.393Z,12.30
2023-05-15T21:21:48.424Z,12.60
2023-05-15T21:24:21.395Z,12.00
2023-05-15T21:26:53.043Z,12.20
2023-05-15T21:29:24.814Z,12.80
2023-05-15T21:31:57.247Z,12.30
2023-05-15T21:34:29.014Z,12.00
2023-05-15T21:37:00.885Z,11.40
2023-05-15T21:39:32.875Z,8.30
2023-05-15T21:42:04.958Z,11.70
2023-05-15T21:44:37.144Z,12.10
2023-05-15T21:47:09.394Z,12.40
2023-05-15T21:49:41.288Z,11.60
2023-05-15T21:52:13.820Z,11.50
2023-05-15T21:54:46.149Z,11.80
2023-05-15T21:57:18.009Z,12.40
2023-05-15T21:59:49.727Z,11.10
2023-05-15T22:02:22.479Z,11.20
2023-05-15T22:04:54.522Z,11.60
2023-05-15T22:07:26.325Z,11.40
2023-05-15T22:09:58.137Z,11.40
2023-05-15T22:12:29.873Z,11.00
2023-05-15T22:15:02.356Z,10.90
2023-05-15T22:17:36.244Z,10.50
2023-05-15T22:20:11.416Z,10.60
2023-05-15T22:22:44.797Z,10.40
2023-05-15T22:25:16.501Z,10.50
2023-05-15T22:27:48.877Z,11.20
2023-05-15T22:30:20.947Z,11.10
2023-05-15T22:32:52.742Z,11.70
2023-05-15T22:35:25.152Z,12.10
2023-05-15T22:37:57.212Z,12.10
2023-05-15T22:40:29.132Z,8.40
2023-05-15T22:43:01.042Z,12.10
2023-05-15T22:45:32.827Z,11.50
2023-05-15T22:48:04.681Z,12.00
2023-05-15T22:50:36.856Z,13.00
2023-05-15T22:53:09.114Z,11.90
2023-05-15T22:55:40.836Z,12.60
2023-05-15T22:58:12.682Z,12.70
2023-05-15T23:00:44.590Z,12.10
2023-05-15T23:03:16.357Z,13.90
2023-05-15T23:05:48.670Z,13.20
2023-05-15T23:08:20.422Z,13.40
2023-05-15T23:10:53.132Z,13.50
2023-05-15T23:15:55.373Z,13.80
2023-05-15T23:18:27.138Z,14.40
2023-05-15T23:20:58.872Z,14.00
2023-05-15T23:23:30.572Z,13.40
2023-05-15T23:26:02.276Z,12.80
2023-05-15T23:28:34.043Z,14.80
2023-05-15T23:31:05.832Z,14.20
2023-05-15T23:33:37.696Z,14.30
2023-05-15T23:36:09.891Z,15.00
2023-05-15T23:38:42.176Z,15.40
2023-05-15T23:41:13.942Z,14.60
2023-05-15T23:43:45.653Z,15.40
2023-05-15T23:46:17.453Z,14.40
2023-05-15T23:48:49.691Z,13.80
2023-05-15T23:51:22.124Z,14.90
2023-05-15T23:53:53.890Z,14.20
2023-05-15T23:56:25.534Z,15.60
2023-05-15T23:58:57.187Z,14.40
